sensor_id;sensor_type;location;lat;lon;timestamp;pressure;altitude;pressure_sealevel;temperature;humidity
72414;BME280;60995;52.154;4.498;2022-12-07T00:00:17;101842.41;;;6.99;80.89
72414;BME280;60995;52.154;4.498;2022-12-07T00:02:34;101842.06;;;6.89;81.04
72414;BME280;60995;52.154;4.498;2022-12-07T00:04:50;101845.47;;;6.76;81.52
72414;BME280;60995;52.154;4.498;2022-12-07T00:07:06;101845.72;;;6.88;81.92
72414;BME280;60995;52.154;4.498;2022-12-07T00:09:22;101849.03;;;6.93;81.30
72414;BME280;60995;52.154;4.498;2022-12-07T00:11:38;101854.59;;;7.06;79.85
72414;BME280;60995;52.154;4.498;2022-12-07T00:13:55;101856.63;;;7.17;78.84
72414;BME280;60995;52.154;4.498;2022-12-07T00:16:13;101849.50;;;7.16;77.70
72414;BME280;60995;52.154;4.498;2022-12-07T00:18:31;101846.00;;;7.29;76.50
72414;BME280;60995;52.154;4.498;2022-12-07T00:20:47;101838.53;;;7.19;75.38
72414;BME280;60995;52.154;4.498;2022-12-07T00:23:03;101839.22;;;7.22;74.61
72414;BME280;60995;52.154;4.498;2022-12-07T00:25:20;101831.34;;;7.34;74.13
72414;BME280;60995;52.154;4.498;2022-12-07T00:27:36;101827.75;;;7.19;75.15
72414;BME280;60995;52.154;4.498;2022-12-07T00:29:52;101825.81;;;7.21;75.31
72414;BME280;60995;52.154;4.498;2022-12-07T00:32:08;101827.75;;;7.19;75.56
72414;BME280;60995;52.154;4.498;2022-12-07T00:34:24;101831.03;;;7.24;75.05
72414;BME280;60995;52.154;4.498;2022-12-07T00:36:40;101832.78;;;7.25;74.59
72414;BME280;60995;52.154;4.498;2022-12-07T00:38:58;101835.88;;;7.33;74.95
72414;BME280;60995;52.154;4.498;2022-12-07T00:41:19;101850.03;;;7.22;75.30
72414;BME280;60995;52.154;4.498;2022-12-07T00:43:36;101843.25;;;7.15;76.36
72414;BME280;60995;52.154;4.498;2022-12-07T00:45:53;101840.31;;;7.34;76.19
72414;BME280;60995;52.154;4.498;2022-12-07T00:48:10;101832.03;;;7.37;75.32
72414;BME280;60995;52.154;4.498;2022-12-07T00:50:26;101829.69;;;7.31;73.81
72414;BME280;60995;52.154;4.498;2022-12-07T00:52:42;101825.38;;;7.43;73.45
72414;BME280;60995;52.154;4.498;2022-12-07T00:54:58;101831.66;;;7.43;73.44
72414;BME280;60995;52.154;4.498;2022-12-07T00:57:14;101832.63;;;7.42;73.61
72414;BME280;60995;52.154;4.498;2022-12-07T00:59:30;101826.69;;;7.21;74.17
72414;BME280;60995;52.154;4.498;2022-12-07T01:01:46;101828.78;;;7.16;74.20
72414;BME280;60995;52.154;4.498;2022-12-07T01:04:02;101830.59;;;7.16;74.97
72414;BME280;60995;52.154;4.498;2022-12-07T01:06:19;101833.69;;;7.09;74.98
72414;BME280;60995;52.154;4.498;2022-12-07T01:08:36;101823.41;;;7.16;75.38
72414;BME280;60995;52.154;4.498;2022-12-07T01:11:06;101822.84;;;7.25;74.92
72414;BME280;60995;52.154;4.498;2022-12-07T01:13:23;101823.56;;;7.13;74.52
72414;BME280;60995;52.154;4.498;2022-12-07T01:15:43;101825.81;;;7.21;73.73
72414;BME280;60995;52.154;4.498;2022-12-07T01:17:59;101835.09;;;7.31;73.38
72414;BME280;60995;52.154;4.498;2022-12-07T01:20:16;101827.19;;;7.28;73.36
72414;BME280;60995;52.154;4.498;2022-12-07T01:22:36;101827.44;;;7.23;73.97
72414;BME280;60995;52.154;4.498;2022-12-07T01:24:55;101829.78;;;7.29;73.67
72414;BME280;60995;52.154;4.498;2022-12-07T01:27:12;101832.25;;;7.18;74.50
72414;BME280;60995;52.154;4.498;2022-12-07T01:29:28;101836.44;;;7.24;74.18
72414;BME280;60995;52.154;4.498;2022-12-07T01:31:44;101837.94;;;7.14;75.13
72414;BME280;60995;52.154;4.498;2022-12-07T01:34:00;101838.59;;;7.03;74.38
72414;BME280;60995;52.154;4.498;2022-12-07T01:38:40;101840.84;;;7.10;74.41
72414;BME280;60995;52.154;4.498;2022-12-07T01:40:57;101836.53;;;7.22;74.68
72414;BME280;60995;52.154;4.498;2022-12-07T01:43:17;101835.03;;;7.33;74.35
72414;BME280;60995;52.154;4.498;2022-12-07T01:45:40;101824.22;;;7.33;74.28
72414;BME280;60995;52.154;4.498;2022-12-07T01:47:56;101821.44;;;7.34;74.55
72414;BME280;60995;52.154;4.498;2022-12-07T01:50:14;101822.16;;;7.22;74.90
72414;BME280;60995;52.154;4.498;2022-12-07T01:52:30;101828.94;;;7.13;75.14
72414;BME280;60995;52.154;4.498;2022-12-07T01:54:49;101829.06;;;7.11;74.58
72414;BME280;60995;52.154;4.498;2022-12-07T01:57:09;101813.16;;;6.91;75.41
72414;BME280;60995;52.154;4.498;2022-12-07T01:59:27;101815.28;;;6.86;75.30
72414;BME280;60995;52.154;4.498;2022-12-07T02:01:43;101813.47;;;7.17;74.51
72414;BME280;60995;52.154;4.498;2022-12-07T02:03:59;101813.66;;;7.14;74.34
72414;BME280;60995;52.154;4.498;2022-12-07T02:06:18;101805.41;;;7.31;74.16
72414;BME280;60995;52.154;4.498;2022-12-07T02:08:37;101814.31;;;7.48;73.24
72414;BME280;60995;52.154;4.498;2022-12-07T02:10:54;101814.28;;;7.33;74.11
72414;BME280;60995;52.154;4.498;2022-12-07T02:13:15;101812.22;;;7.53;73.65
72414;BME280;60995;52.154;4.498;2022-12-07T02:28:27;101815.97;;;7.50;74.97
72414;BME280;60995;52.154;4.498;2022-12-07T02:30:46;101810.22;;;7.40;76.36
72414;BME280;60995;52.154;4.498;2022-12-07T02:33:17;101804.81;;;7.26;77.87
72414;BME280;60995;52.154;4.498;2022-12-07T02:35:41;101798.44;;;7.27;78.17
72414;BME280;60995;52.154;4.498;2022-12-07T02:38:17;101797.13;;;7.34;76.46
72414;BME280;60995;52.154;4.498;2022-12-07T02:43:19;101806.47;;;7.43;76.18
72414;BME280;60995;52.154;4.498;2022-12-07T02:45:41;101792.50;;;7.36;76.15
72414;BME280;60995;52.154;4.498;2022-12-07T02:48:00;101797.50;;;7.28;77.28
72414;BME280;60995;52.154;4.498;2022-12-07T02:50:18;101802.78;;;7.29;77.65
72414;BME280;60995;52.154;4.498;2022-12-07T02:52:36;101795.00;;;7.25;78.02
72414;BME280;60995;52.154;4.498;2022-12-07T02:54:52;101799.50;;;7.24;77.76
72414;BME280;60995;52.154;4.498;2022-12-07T03:00:19;101795.47;;;7.01;78.56
72414;BME280;60995;52.154;4.498;2022-12-07T03:02:38;101802.22;;;6.94;79.23
72414;BME280;60995;52.154;4.498;2022-12-07T03:15:36;101809.44;;;7.24;74.58
72414;BME280;60995;52.154;4.498;2022-12-07T03:18:13;101807.25;;;7.31;75.03
72414;BME280;60995;52.154;4.498;2022-12-07T03:20:33;101799.59;;;7.23;74.99
72414;BME280;60995;52.154;4.498;2022-12-07T03:22:56;101799.88;;;7.18;75.92
72414;BME280;60995;52.154;4.498;2022-12-07T03:25:15;101797.09;;;7.20;76.23
72414;BME280;60995;52.154;4.498;2022-12-07T03:27:34;101798.66;;;7.24;75.48
72414;BME280;60995;52.154;4.498;2022-12-07T03:30:13;101796.25;;;7.34;75.59
72414;BME280;60995;52.154;4.498;2022-12-07T03:32:44;101793.84;;;7.29;74.29
72414;BME280;60995;52.154;4.498;2022-12-07T03:35:12;101779.94;;;7.35;73.74
72414;BME280;60995;52.154;4.498;2022-12-07T03:38:02;101788.09;;;7.50;73.20
72414;BME280;60995;52.154;4.498;2022-12-07T03:40:32;101781.69;;;7.36;72.98
72414;BME280;60995;52.154;4.498;2022-12-07T03:42:53;101785.16;;;7.24;72.80
72414;BME280;60995;52.154;4.498;2022-12-07T03:45:11;101783.03;;;7.29;72.62
72414;BME280;60995;52.154;4.498;2022-12-07T03:47:33;101777.22;;;7.21;72.73
72414;BME280;60995;52.154;4.498;2022-12-07T03:49:55;101784.19;;;7.25;72.47
72414;BME280;60995;52.154;4.498;2022-12-07T03:52:24;101780.69;;;7.23;72.60
72414;BME280;60995;52.154;4.498;2022-12-07T03:55:02;101777.13;;;7.08;72.79
72414;BME280;60995;52.154;4.498;2022-12-07T03:57:33;101776.22;;;7.07;72.50
72414;BME280;60995;52.154;4.498;2022-12-07T03:59:50;101774.03;;;7.14;72.65
72414;BME280;60995;52.154;4.498;2022-12-07T04:02:10;101782.25;;;7.27;72.06
72414;BME280;60995;52.154;4.498;2022-12-07T04:04:27;101779.91;;;7.21;71.76
72414;BME280;60995;52.154;4.498;2022-12-07T04:06:44;101777.59;;;7.15;71.85
72414;BME280;60995;52.154;4.498;2022-12-07T04:09:00;101772.00;;;7.18;71.28
72414;BME280;60995;52.154;4.498;2022-12-07T04:11:16;101769.44;;;7.31;70.80
72414;BME280;60995;52.154;4.498;2022-12-07T04:13:35;101766.16;;;7.25;67.81
72414;BME280;60995;52.154;4.498;2022-12-07T04:16:10;101764.91;;;7.45;66.73
72414;BME280;60995;52.154;4.498;2022-12-07T04:18:26;101771.22;;;7.46;67.11
72414;BME280;60995;52.154;4.498;2022-12-07T04:20:43;101787.97;;;7.37;67.36
72414;BME280;60995;52.154;4.498;2022-12-07T04:22:59;101773.91;;;7.16;69.41
72414;BME280;60995;52.154;4.498;2022-12-07T04:25:15;101771.16;;;7.17;70.09
72414;BME280;60995;52.154;4.498;2022-12-07T04:27:31;101771.06;;;7.19;70.69
72414;BME280;60995;52.154;4.498;2022-12-07T04:29:47;101772.00;;;7.18;71.29
72414;BME280;60995;52.154;4.498;2022-12-07T04:32:03;101767.97;;;7.10;72.44
72414;BME280;60995;52.154;4.498;2022-12-07T04:34:19;101769.84;;;6.94;73.41
72414;BME280;60995;52.154;4.498;2022-12-07T04:36:36;101763.22;;;7.14;72.86
72414;BME280;60995;52.154;4.498;2022-12-07T04:38:53;101769.09;;;7.06;73.22
72414;BME280;60995;52.154;4.498;2022-12-07T04:41:10;101763.53;;;7.09;73.71
72414;BME280;60995;52.154;4.498;2022-12-07T04:43:26;101759.91;;;6.94;74.78
72414;BME280;60995;52.154;4.498;2022-12-07T04:45:48;101771.38;;;6.98;74.70
72414;BME280;60995;52.154;4.498;2022-12-07T04:48:06;101765.28;;;6.94;75.21
72414;BME280;60995;52.154;4.498;2022-12-07T04:50:22;101767.72;;;6.99;74.94
72414;BME280;60995;52.154;4.498;2022-12-07T04:52:38;101744.59;;;6.95;73.67
72414;BME280;60995;52.154;4.498;2022-12-07T04:54:54;101744.31;;;7.00;72.98
72414;BME280;60995;52.154;4.498;2022-12-07T04:57:10;101754.34;;;6.82;72.25
72414;BME280;60995;52.154;4.498;2022-12-07T04:59:28;101746.97;;;6.85;71.54
72414;BME280;60995;52.154;4.498;2022-12-07T05:01:44;101750.84;;;6.95;70.70
72414;BME280;60995;52.154;4.498;2022-12-07T05:04:00;101741.59;;;7.00;70.63
72414;BME280;60995;52.154;4.498;2022-12-07T05:06:16;101740.44;;;7.04;70.90
72414;BME280;60995;52.154;4.498;2022-12-07T05:08:33;101742.50;;;7.00;70.96
72414;BME280;60995;52.154;4.498;2022-12-07T05:10:50;101739.25;;;6.93;71.48
72414;BME280;60995;52.154;4.498;2022-12-07T05:13:06;101741.31;;;6.90;72.10
72414;BME280;60995;52.154;4.498;2022-12-07T05:15:22;101741.59;;;7.00;71.46
72414;BME280;60995;52.154;4.498;2022-12-07T05:17:38;101748.66;;;7.02;71.73
72414;BME280;60995;52.154;4.498;2022-12-07T05:19:54;101744.75;;;6.92;71.92
72414;BME280;60995;52.154;4.498;2022-12-07T05:22:10;101744.75;;;6.92;71.92
72414;BME280;60995;52.154;4.498;2022-12-07T05:24:26;101736.47;;;6.81;72.56
72414;BME280;60995;52.154;4.498;2022-12-07T05:26:42;101742.91;;;6.78;72.10
72414;BME280;60995;52.154;4.498;2022-12-07T05:28:59;101747.06;;;6.84;71.83
72414;BME280;60995;52.154;4.498;2022-12-07T05:31:16;101742.59;;;6.83;72.01
72414;BME280;60995;52.154;4.498;2022-12-07T05:33:32;101747.25;;;6.81;72.36
72414;BME280;60995;52.154;4.498;2022-12-07T05:35:48;101752.69;;;6.79;72.91
72414;BME280;60995;52.154;4.498;2022-12-07T05:38:04;101746.25;;;6.98;71.96
72414;BME280;60995;52.154;4.498;2022-12-07T05:40:20;101747.31;;;7.09;71.43
72414;BME280;60995;52.154;4.498;2022-12-07T05:42:36;101747.69;;;7.03;71.07
72414;BME280;60995;52.154;4.498;2022-12-07T05:44:53;101744.16;;;6.87;71.29
72414;BME280;60995;52.154;4.498;2022-12-07T05:47:09;101747.75;;;6.71;73.48
72414;BME280;60995;52.154;4.498;2022-12-07T05:49:25;101751.53;;;6.53;73.42
72414;BME280;60995;52.154;4.498;2022-12-07T05:51:42;101743.56;;;6.35;74.45
72414;BME280;60995;52.154;4.498;2022-12-07T05:53:58;101739.03;;;6.20;74.64
72414;BME280;60995;52.154;4.498;2022-12-07T05:56:14;101742.09;;;6.13;76.02
72414;BME280;60995;52.154;4.498;2022-12-07T05:58:30;101742.97;;;6.30;74.78
72414;BME280;60995;52.154;4.498;2022-12-07T06:01:05;101737.72;;;6.27;76.09
72414;BME280;60995;52.154;4.498;2022-12-07T06:03:21;101738.25;;;6.18;75.28
72414;BME280;60995;52.154;4.498;2022-12-07T06:05:37;101741.13;;;6.15;76.01
72414;BME280;60995;52.154;4.498;2022-12-07T06:07:53;101735.13;;;6.09;75.67
72414;BME280;60995;52.154;4.498;2022-12-07T06:10:09;101739.81;;;6.22;76.01
72414;BME280;60995;52.154;4.498;2022-12-07T06:12:25;101743.13;;;6.27;75.68
72414;BME280;60995;52.154;4.498;2022-12-07T06:14:51;101734.34;;;6.39;75.50
72414;BME280;60995;52.154;4.498;2022-12-07T06:17:07;101732.84;;;6.50;74.85
72414;BME280;60995;52.154;4.498;2022-12-07T06:19:23;101732.84;;;6.50;74.87
72414;BME280;60995;52.154;4.498;2022-12-07T06:21:40;101739.72;;;6.55;75.46
72414;BME280;60995;52.154;4.498;2022-12-07T06:23:56;101741.69;;;6.68;75.65
72414;BME280;60995;52.154;4.498;2022-12-07T06:26:12;101755.00;;;7.01;74.53
72414;BME280;60995;52.154;4.498;2022-12-07T06:28:28;101755.81;;;7.18;73.90
72414;BME280;60995;52.154;4.498;2022-12-07T06:30:44;101756.78;;;7.17;72.93
72414;BME280;60995;52.154;4.498;2022-12-07T06:33:00;101757.56;;;7.19;72.57
72414;BME280;60995;52.154;4.498;2022-12-07T06:35:16;101748.31;;;7.23;72.94
72414;BME280;60995;52.154;4.498;2022-12-07T06:37:32;101744.81;;;7.21;72.76
72414;BME280;60995;52.154;4.498;2022-12-07T06:39:48;101749.25;;;7.22;73.05
72414;BME280;60995;52.154;4.498;2022-12-07T06:42:04;101754.66;;;7.22;73.52
72414;BME280;60995;52.154;4.498;2022-12-07T06:44:20;101754.28;;;7.14;73.86
72414;BME280;60995;52.154;4.498;2022-12-07T06:46:37;101758.25;;;7.22;73.03
72414;BME280;60995;52.154;4.498;2022-12-07T06:48:53;101756.47;;;7.07;73.39
72414;BME280;60995;52.154;4.498;2022-12-07T06:51:09;101760.97;;;7.06;73.81
72414;BME280;60995;52.154;4.498;2022-12-07T06:53:26;101757.84;;;6.84;74.55
72414;BME280;60995;52.154;4.498;2022-12-07T06:55:42;101751.94;;;6.77;75.45
72414;BME280;60995;52.154;4.498;2022-12-07T06:57:58;101748.81;;;6.69;75.44
72414;BME280;60995;52.154;4.498;2022-12-07T07:00:14;101754.19;;;6.85;74.93
72414;BME280;60995;52.154;4.498;2022-12-07T07:02:30;101759.16;;;6.76;75.10
72414;BME280;60995;52.154;4.498;2022-12-07T07:04:46;101752.25;;;6.87;75.28
72414;BME280;60995;52.154;4.498;2022-12-07T07:07:02;101754.59;;;6.93;74.90
72414;BME280;60995;52.154;4.498;2022-12-07T07:09:18;101759.59;;;6.85;74.85
72414;BME280;60995;52.154;4.498;2022-12-07T07:11:34;101749.50;;;6.88;74.73
72414;BME280;60995;52.154;4.498;2022-12-07T07:13:50;101756.94;;;6.99;74.35
72414;BME280;60995;52.154;4.498;2022-12-07T07:16:06;101759.34;;;7.04;74.06
72414;BME280;60995;52.154;4.498;2022-12-07T07:18:23;101758.09;;;6.95;74.04
72414;BME280;60995;52.154;4.498;2022-12-07T07:20:39;101755.38;;;6.95;74.67
72414;BME280;60995;52.154;4.498;2022-12-07T07:22:55;101756.69;;;6.88;74.74
72414;BME280;60995;52.154;4.498;2022-12-07T07:25:12;101764.94;;;7.01;74.02
72414;BME280;60995;52.154;4.498;2022-12-07T07:27:28;101763.75;;;6.90;74.56
72414;BME280;60995;52.154;4.498;2022-12-07T07:29:44;101753.03;;;6.89;74.80
72414;BME280;60995;52.154;4.498;2022-12-07T07:32:00;101762.72;;;7.07;74.07
72414;BME280;60995;52.154;4.498;2022-12-07T07:34:17;101763.03;;;7.03;74.22
72414;BME280;60995;52.154;4.498;2022-12-07T07:36:33;101765.44;;;7.07;74.46
72414;BME280;60995;52.154;4.498;2022-12-07T07:38:49;101758.78;;;7.13;73.93
72414;BME280;60995;52.154;4.498;2022-12-07T07:41:05;101761.22;;;7.18;73.58
72414;BME280;60995;52.154;4.498;2022-12-07T07:43:21;101756.59;;;7.20;73.54
72414;BME280;60995;52.154;4.498;2022-12-07T07:45:37;101750.03;;;7.09;74.48
72414;BME280;60995;52.154;4.498;2022-12-07T07:47:53;101759.72;;;6.98;72.66
72414;BME280;60995;52.154;4.498;2022-12-07T07:50:09;101764.25;;;6.97;72.21
72414;BME280;60995;52.154;4.498;2022-12-07T07:52:26;101760.59;;;6.98;72.99
72414;BME280;60995;52.154;4.498;2022-12-07T07:54:42;101754.00;;;6.88;73.61
72414;BME280;60995;52.154;4.498;2022-12-07T07:56:58;101753.44;;;6.97;73.29
72414;BME280;60995;52.154;4.498;2022-12-07T07:59:14;101756.44;;;6.92;73.35
72414;BME280;60995;52.154;4.498;2022-12-07T08:01:30;101764.53;;;6.92;72.79
72414;BME280;60995;52.154;4.498;2022-12-07T08:03:47;101767.22;;;6.92;72.77
72414;BME280;60995;52.154;4.498;2022-12-07T08:06:04;101774.28;;;6.95;71.88
72414;BME280;60995;52.154;4.498;2022-12-07T08:08:20;101773.47;;;6.93;72.25
72414;BME280;60995;52.154;4.498;2022-12-07T08:10:36;101780.63;;;6.94;72.50
72414;BME280;60995;52.154;4.498;2022-12-07T08:12:53;101769.97;;;7.07;72.18
72414;BME280;60995;52.154;4.498;2022-12-07T08:15:27;101772.53;;;6.94;72.56
72414;BME280;60995;52.154;4.498;2022-12-07T08:17:45;101765.78;;;7.01;72.25
72414;BME280;60995;52.154;4.498;2022-12-07T08:20:01;101770.41;;;7.29;71.32
72414;BME280;60995;52.154;4.498;2022-12-07T08:22:17;101766.41;;;7.21;71.00
72414;BME280;60995;52.154;4.498;2022-12-07T08:24:35;101757.94;;;7.12;71.26
72414;BME280;60995;52.154;4.498;2022-12-07T08:26:51;101774.03;;;7.14;71.19
72414;BME280;60995;52.154;4.498;2022-12-07T08:29:08;101770.22;;;7.33;70.53
72414;BME280;60995;52.154;4.498;2022-12-07T08:31:24;101763.94;;;7.32;71.66
72414;BME280;60995;52.154;4.498;2022-12-07T08:33:40;101767.34;;;7.50;71.75
72414;BME280;60995;52.154;4.498;2022-12-07T08:36:04;101769.94;;;8.09;71.17
72414;BME280;60995;52.154;4.498;2022-12-07T08:38:22;101762.97;;;8.49;69.38
72414;BME280;60995;52.154;4.498;2022-12-07T08:40:38;101772.13;;;9.14;68.97
72414;BME280;60995;52.154;4.498;2022-12-07T08:42:54;101766.59;;;9.02;66.67
72414;BME280;60995;52.154;4.498;2022-12-07T08:45:11;101766.06;;;8.97;66.47
72414;BME280;60995;52.154;4.498;2022-12-07T08:47:28;101761.78;;;9.59;66.04
72414;BME280;60995;52.154;4.498;2022-12-07T08:49:46;101765.59;;;10.19;63.78
72414;BME280;60995;52.154;4.498;2022-12-07T08:52:06;101763.78;;;10.57;62.58
72414;BME280;60995;52.154;4.498;2022-12-07T08:54:22;101768.25;;;11.18;58.89
72414;BME280;60995;52.154;4.498;2022-12-07T08:56:38;101768.19;;;10.71;60.66
72414;BME280;60995;52.154;4.498;2022-12-07T08:58:55;101765.84;;;10.03;61.39
72414;BME280;60995;52.154;4.498;2022-12-07T09:01:11;101769.59;;;9.51;61.72
72414;BME280;60995;52.154;4.498;2022-12-07T09:03:27;101772.41;;;9.36;61.63
72414;BME280;60995;52.154;4.498;2022-12-07T09:05:43;101777.63;;;8.99;63.24
72414;BME280;60995;52.154;4.498;2022-12-07T09:08:00;101776.63;;;8.87;64.99
72414;BME280;60995;52.154;4.498;2022-12-07T09:10:17;101768.38;;;8.89;64.82
72414;BME280;60995;52.154;4.498;2022-12-07T09:12:33;101763.53;;;8.94;64.90
72414;BME280;60995;52.154;4.498;2022-12-07T09:14:49;101765.81;;;9.00;64.54
72414;BME280;60995;52.154;4.498;2022-12-07T09:17:09;101774.38;;;8.67;65.81
72414;BME280;60995;52.154;4.498;2022-12-07T09:19:27;101766.75;;;8.59;66.83
72414;BME280;60995;52.154;4.498;2022-12-07T09:21:43;101767.75;;;8.58;68.12
72414;BME280;60995;52.154;4.498;2022-12-07T09:23:59;101763.16;;;8.73;68.43
72414;BME280;60995;52.154;4.498;2022-12-07T09:26:15;101758.13;;;10.60;67.11
72414;BME280;60995;52.154;4.498;2022-12-07T09:28:31;101760.34;;;13.27;59.94
72414;BME280;60995;52.154;4.498;2022-12-07T09:30:47;101747.59;;;15.30;52.03
72414;BME280;60995;52.154;4.498;2022-12-07T09:33:04;101754.72;;;16.99;46.54
72414;BME280;60995;52.154;4.498;2022-12-07T09:35:20;101751.22;;;17.86;45.43
72414;BME280;60995;52.154;4.498;2022-12-07T09:37:37;101748.03;;;17.73;42.47
72414;BME280;60995;52.154;4.498;2022-12-07T09:39:53;101748.72;;;18.35;42.00
72414;BME280;60995;52.154;4.498;2022-12-07T09:42:11;101748.28;;;18.14;42.60
72414;BME280;60995;52.154;4.498;2022-12-07T09:45:10;101749.34;;;15.01;46.85
72414;BME280;60995;52.154;4.498;2022-12-07T09:47:30;101751.69;;;13.64;50.56
72414;BME280;60995;52.154;4.498;2022-12-07T09:49:46;101749.78;;;12.48;54.71
72414;BME280;60995;52.154;4.498;2022-12-07T09:52:03;101750.56;;;11.59;57.48
72414;BME280;60995;52.154;4.498;2022-12-07T09:54:39;101743.84;;;11.29;58.22
72414;BME280;60995;52.154;4.498;2022-12-07T09:56:59;101749.69;;;10.52;60.50
72414;BME280;60995;52.154;4.498;2022-12-07T09:59:18;101749.22;;;10.58;60.82
72414;BME280;60995;52.154;4.498;2022-12-07T10:01:34;101747.44;;;11.05;59.17
72414;BME280;60995;52.154;4.498;2022-12-07T10:03:52;101750.28;;;11.62;56.56
72414;BME280;60995;52.154;4.498;2022-12-07T10:06:10;101743.59;;;12.78;53.41
72414;BME280;60995;52.154;4.498;2022-12-07T10:08:28;101735.31;;;12.80;52.20
72414;BME280;60995;52.154;4.498;2022-12-07T10:10:45;101744.91;;;12.07;53.96
72414;BME280;60995;52.154;4.498;2022-12-07T10:13:08;101738.41;;;11.40;56.37
72414;BME280;60995;52.154;4.498;2022-12-07T10:15:41;101739.75;;;10.88;57.56
72414;BME280;60995;52.154;4.498;2022-12-07T10:18:00;101734.94;;;10.91;58.76
72414;BME280;60995;52.154;4.498;2022-12-07T10:20:18;101731.09;;;10.83;58.33
72414;BME280;60995;52.154;4.498;2022-12-07T10:22:43;101730.75;;;10.63;59.33
72414;BME280;60995;52.154;4.498;2022-12-07T10:25:18;101737.78;;;10.90;58.46
72414;BME280;60995;52.154;4.498;2022-12-07T10:27:35;101727.47;;;11.06;58.70
72414;BME280;60995;52.154;4.498;2022-12-07T10:29:52;101729.13;;;11.43;57.95
72414;BME280;60995;52.154;4.498;2022-12-07T10:34:32;101725.59;;;11.54;56.25
72414;BME280;60995;52.154;4.498;2022-12-07T10:36:50;101724.22;;;11.94;55.14
72414;BME280;60995;52.154;4.498;2022-12-07T10:39:14;101713.09;;;11.63;55.12
72414;BME280;60995;52.154;4.498;2022-12-07T10:41:34;101708.78;;;11.60;55.31
72414;BME280;60995;52.154;4.498;2022-12-07T10:43:51;101707.44;;;11.66;55.56
72414;BME280;60995;52.154;4.498;2022-12-07T10:46:21;101706.25;;;12.36;52.88
72414;BME280;60995;52.154;4.498;2022-12-07T10:51:45;101691.53;;;15.53;45.68
72414;BME280;60995;52.154;4.498;2022-12-07T10:57:04;101683.75;;;18.10;40.80
72414;BME280;60995;52.154;4.498;2022-12-07T11:20:25;101672.47;;;10.45;55.15
72414;BME280;60995;52.154;4.498;2022-12-07T11:22:51;101668.28;;;10.52;53.78
72414;BME280;60995;52.154;4.498;2022-12-07T11:25:49;101664.38;;;10.56;52.64
72414;BME280;60995;52.154;4.498;2022-12-07T11:30:49;101670.84;;;10.78;54.63
72414;BME280;60995;52.154;4.498;2022-12-07T11:33:29;101661.97;;;10.27;56.55
72414;BME280;60995;52.154;4.498;2022-12-07T11:41:00;101659.81;;;9.95;58.71
72414;BME280;60995;52.154;4.498;2022-12-07T11:43:29;101659.97;;;9.81;59.29
72414;BME280;60995;52.154;4.498;2022-12-07T11:46:03;101666.66;;;9.51;59.65
72414;BME280;60995;52.154;4.498;2022-12-07T11:48:33;101657.72;;;9.74;61.75
72414;BME280;60995;52.154;4.498;2022-12-07T11:50:58;101669.00;;;9.55;60.30
72414;BME280;60995;52.154;4.498;2022-12-07T11:56:00;101656.59;;;9.27;62.77
72414;BME280;60995;52.154;4.498;2022-12-07T12:00:49;101653.22;;;9.36;63.79
72414;BME280;60995;52.154;4.498;2022-12-07T12:03:12;101640.41;;;9.38;63.81
72414;BME280;60995;52.154;4.498;2022-12-07T12:05:33;101639.38;;;9.15;65.42
72414;BME280;60995;52.154;4.498;2022-12-07T12:07:54;101640.66;;;9.09;66.58
72414;BME280;60995;52.154;4.498;2022-12-07T12:20:31;101629.81;;;10.58;62.96
72414;BME280;60995;52.154;4.498;2022-12-07T12:23:14;101620.47;;;10.62;61.95
72414;BME280;60995;52.154;4.498;2022-12-07T12:25:50;101618.09;;;11.04;60.68
72414;BME280;60995;52.154;4.498;2022-12-07T12:30:44;101614.75;;;11.57;59.80
72414;BME280;60995;52.154;4.498;2022-12-07T12:33:04;101622.03;;;11.68;59.23
72414;BME280;60995;52.154;4.498;2022-12-07T12:35:30;101612.38;;;11.87;57.97
72414;BME280;60995;52.154;4.498;2022-12-07T12:37:46;101610.41;;;12.54;56.17
72414;BME280;60995;52.154;4.498;2022-12-07T12:42:43;101610.38;;;12.00;57.42
72414;BME280;60995;52.154;4.498;2022-12-07T12:45:20;101614.44;;;10.70;59.27
72414;BME280;60995;52.154;4.498;2022-12-07T12:47:42;101608.84;;;10.00;61.08
72414;BME280;60995;52.154;4.498;2022-12-07T12:50:18;101605.94;;;10.15;61.27
72414;BME280;60995;52.154;4.498;2022-12-07T12:52:49;101602.63;;;9.87;62.78
72414;BME280;60995;52.154;4.498;2022-12-07T12:57:26;101595.66;;;9.83;61.04
72414;BME280;60995;52.154;4.498;2022-12-07T13:04:47;101591.28;;;9.69;61.12
72414;BME280;60995;52.154;4.498;2022-12-07T13:07:10;101581.81;;;9.74;59.11
72414;BME280;60995;52.154;4.498;2022-12-07T13:09:28;101582.41;;;9.91;58.32
72414;BME280;60995;52.154;4.498;2022-12-07T13:11:48;101577.16;;;9.76;58.39
72414;BME280;60995;52.154;4.498;2022-12-07T13:16:56;101571.59;;;9.54;58.00
72414;BME280;60995;52.154;4.498;2022-12-07T13:21:56;101564.59;;;9.75;57.92
72414;BME280;60995;52.154;4.498;2022-12-07T13:24:12;101565.00;;;9.82;58.41
72414;BME280;60995;52.154;4.498;2022-12-07T13:28:49;101565.91;;;9.94;57.19
72414;BME280;60995;52.154;4.498;2022-12-07T13:33:45;101569.69;;;9.67;58.79
72414;BME280;60995;52.154;4.498;2022-12-07T13:36:03;101558.97;;;9.41;59.99
72414;BME280;60995;52.154;4.498;2022-12-07T13:38:47;101569.41;;;9.22;60.80
72414;BME280;60995;52.154;4.498;2022-12-07T13:43:26;101551.22;;;8.98;60.27
72414;BME280;60995;52.154;4.498;2022-12-07T13:45:42;101548.97;;;8.92;60.16
72414;BME280;60995;52.154;4.498;2022-12-07T13:48:03;101549.50;;;8.97;59.03
72414;BME280;60995;52.154;4.498;2022-12-07T13:50:27;101540.59;;;9.21;58.39
72414;BME280;60995;52.154;4.498;2022-12-07T13:52:45;101537.13;;;9.19;59.17
72414;BME280;60995;52.154;4.498;2022-12-07T13:57:29;101544.50;;;9.17;58.70
72414;BME280;60995;52.154;4.498;2022-12-07T13:59:47;101528.78;;;9.22;58.93
72414;BME280;60995;52.154;4.498;2022-12-07T14:02:16;101535.41;;;9.18;59.45
72414;BME280;60995;52.154;4.498;2022-12-07T14:04:36;101533.69;;;9.04;60.39
72414;BME280;60995;52.154;4.498;2022-12-07T14:06:53;101525.97;;;9.10;59.96